Time,TemperatureF,DewpointF,PressureIn,WindDirection,WindDirectionDegrees,WindSpeedMPH,WindSpeedGustMPH,Humidity,HourlyPrecipIn,Conditions,Clouds,dailyrainin,SoftwareType,DateUTC
2013-03-30 00:00:00,50.9,42.9,30.23,South,180,0.0,0.0,74,0.00,,,0.00,WUHU216HW,2013-03-30 04:00:00,
2013-03-30 00:05:00,50.6,42.6,30.23,South,180,0.0,0.0,74,0.00,,,0.00,WUHU216HW,2013-03-30 04:05:00,
2013-03-30 00:10:00,50.6,42.6,30.23,South,180,0.0,0.0,74,0.00,,,0.00,WUHU216HW,2013-03-30 04:10:00,
2013-03-30 00:15:00,50.6,42.6,30.23,South,180,0.0,0.0,74,0.00,,,0.00,WUHU216HW,2013-03-30 04:15:00,
2013-03-30 00:20:00,50.4,42.4,30.23,SW,225,0.7,0.7,74,0.00,,,0.00,WUHU216HW,2013-03-30 04:20:00,
2013-03-30 00:25:00,50.4,42.4,30.24,SW,225,0.2,0.7,74,0.00,,,0.00,WUHU216HW,2013-03-30 04:25:00,
2013-03-30 00:30:00,50.4,42.4,30.24,West,270,0.0,0.7,74,0.00,,,0.00,WUHU216HW,2013-03-30 04:30:00,
2013-03-30 00:35:00,50.2,42.2,30.23,West,270,0.0,0.4,74,0.00,,,0.00,WUHU216HW,2013-03-30 04:35:00,
2013-03-30 00:40:00,50.2,42.2,30.23,West,270,0.0,0.4,74,0.00,,,0.00,WUHU216HW,2013-03-30 04:40:00,
2013-03-30 00:45:00,50.2,42.2,30.23,West,270,0.0,0.0,74,0.00,,,0.00,WUHU216HW,2013-03-30 04:45:00,
2013-03-30 00:50:00,50.2,42.2,30.23,West,270,0.0,0.0,74,0.00,,,0.00,WUHU216HW,2013-03-30 04:50:00,
2013-03-30 00:55:00,50.2,42.2,30.23,West,270,0.0,0.0,74,0.00,,,0.00,WUHU216HW,2013-03-30 04:55:00,
2013-03-30 01:00:00,50.2,42.2,30.23,West,270,0.2,0.4,74,0.00,,,0.00,WUHU216HW,2013-03-30 05:00:00,
2013-03-30 01:05:00,50.2,42.2,30.23,West,270,0.0,0.4,74,0.00,,,0.00,WUHU216HW,2013-03-30 05:05:00,
2013-03-30 01:10:00,50.0,42.4,30.23,West,270,0.0,0.2,75,0.00,,,0.00,WUHU216HW,2013-03-30 05:10:00,
2013-03-30 01:15:00,50.0,42.4,30.23,West,270,0.0,0.0,75,0.00,,,0.00,WUHU216HW,2013-03-30 05:15:00,
2013-03-30 01:20:00,49.7,42.0,30.22,West,270,0.0,0.0,75,0.00,,,0.00,WUHU216HW,2013-03-30 05:20:00,
2013-03-30 01:25:00,49.7,42.0,30.22,West,270,0.0,0.0,75,0.00,,,0.00,WUHU216HW,2013-03-30 05:25:00,
2013-03-30 01:30:00,49.5,41.9,30.22,West,270,0.0,0.0,75,0.00,,,0.00,WUHU216HW,2013-03-30 05:30:00,
2013-03-30 01:35:00,49.3,42.4,30.22,NE,45,0.0,0.2,77,0.00,,,0.00,WUHU216HW,2013-03-30 05:35:00,
2013-03-30 01:40:00,49.0,42.3,30.22,NE,45,0.0,0.2,78,0.00,,,0.00,WUHU216HW,2013-03-30 05:40:00,
2013-03-30 01:45:00,48.8,42.1,30.22,NE,45,0.0,0.0,78,0.00,,,0.00,WUHU216HW,2013-03-30 05:45:00,
2013-03-30 01:50:00,48.4,41.8,30.22,NE,45,0.0,0.0,78,0.00,,,0.00,WUHU216HW,2013-03-30 05:50:00,
2013-03-30 01:55:00,48.4,41.8,30.22,NE,45,0.0,0.0,78,0.00,,,0.00,WUHU216HW,2013-03-30 05:55:00,
2013-03-30 02:00:00,48.4,41.8,30.22,NE,45,0.0,0.0,78,0.00,,,0.00,WUHU216HW,2013-03-30 06:00:00,
2013-03-30 02:05:00,47.9,41.3,30.22,NE,45,0.0,0.0,78,0.00,,,0.00,WUHU216HW,2013-03-30 06:05:00,
2013-03-30 02:10:00,47.9,41.3,30.22,NE,45,0.0,0.0,78,0.00,,,0.00,WUHU216HW,2013-03-30 06:10:00,
2013-03-30 02:15:00,47.9,41.3,30.22,NE,45,0.0,0.0,78,0.00,,,0.00,WUHU216HW,2013-03-30 06:15:00,
2013-03-30 02:20:00,47.9,41.3,30.22,NE,45,0.0,0.0,78,0.00,,,0.00,WUHU216HW,2013-03-30 06:20:00,
2013-03-30 02:25:00,47.7,41.1,30.22,North,0,0.0,0.0,78,0.00,,,0.00,WUHU216HW,2013-03-30 06:25:00,
2013-03-30 02:30:00,47.7,41.1,30.22,North,0,0.0,0.0,78,0.00,,,0.00,WUHU216HW,2013-03-30 06:30:00,
2013-03-30 02:35:00,47.9,41.3,30.22,North,0,0.0,0.0,78,0.00,,,0.00,WUHU216HW,2013-03-30 06:35:00,
2013-03-30 02:40:00,47.9,41.3,30.22,North,0,0.0,0.0,78,0.00,,,0.00,WUHU216HW,2013-03-30 06:40:00,
2013-03-30 02:45:00,47.9,41.3,30.21,North,0,0.0,0.0,78,0.00,,,0.00,WUHU216HW,2013-03-30 06:45:00,
2013-03-30 02:50:00,47.7,41.1,30.21,North,0,0.0,0.0,78,0.00,,,0.00,WUHU216HW,2013-03-30 06:50:00,
2013-03-30 02:55:00,47.5,41.0,30.21,North,0,0.0,0.0,78,0.00,,,0.00,WUHU216HW,2013-03-30 06:55:00,
2013-03-30 03:00:00,47.5,41.0,30.21,North,0,0.0,0.0,78,0.00,,,0.00,WUHU216HW,2013-03-30 07:00:00,
2013-03-30 03:05:00,47.5,41.0,30.21,North,0,0.0,0.0,78,0.00,,,0.00,WUHU216HW,2013-03-30 07:05:00,
2013-03-30 03:10:00,47.5,41.0,30.21,North,0,0.0,0.0,78,0.00,,,0.00,WUHU216HW,2013-03-30 07:10:00,
2013-03-30 03:15:00,47.5,41.0,30.21,North,0,0.0,0.0,78,0.00,,,0.00,WUHU216HW,2013-03-30 07:15:00,
2013-03-30 03:20:00,47.5,41.0,30.20,North,0,0.0,0.0,78,0.00,,,0.00,WUHU216HW,2013-03-30 07:20:00,
2013-03-30 03:25:00,47.3,40.8,30.20,North,0,0.0,0.0,78,0.00,,,0.00,WUHU216HW,2013-03-30 07:25:00,
2013-03-30 03:30:00,47.3,40.8,30.20,East,90,0.0,0.0,78,0.00,,,0.00,WUHU216HW,2013-03-30 07:30:00,
2013-03-30 03:35:00,47.2,40.7,30.20,NE,45,0.0,0.0,78,0.00,,,0.00,WUHU216HW,2013-03-30 07:35:00,
2013-03-30 03:40:00,46.8,40.0,30.20,WNW,293,0.2,1.6,77,0.00,,,0.00,WUHU216HW,2013-03-30 07:40:00,
2013-03-30 03:45:00,46.6,39.8,30.20,NW,315,0.0,1.6,77,0.00,,,0.00,WUHU216HW,2013-03-30 07:45:00,
2013-03-30 03:50:00,46.4,39.7,30.20,NW,315,0.0,0.2,77,0.00,,,0.00,WUHU216HW,2013-03-30 07:50:00,
2013-03-30 03:55:00,46.4,39.7,30.20,NW,315,0.0,0.0,77,0.00,,,0.00,WUHU216HW,2013-03-30 07:55:00,
2013-03-30 04:00:00,46.4,39.7,30.20,NW,315,0.0,0.0,77,0.00,,,0.00,WUHU216HW,2013-03-30 08:00:00,
2013-03-30 04:05:00,46.4,40.0,30.20,NW,315,0.0,0.0,78,0.00,,,0.00,WUHU216HW,2013-03-30 08:05:00,
2013-03-30 04:10:00,46.4,39.7,30.20,NW,315,0.0,0.0,77,0.00,,,0.00,WUHU216HW,2013-03-30 08:10:00,
2013-03-30 04:15:00,46.3,39.5,30.20,NW,315,0.0,0.0,77,0.00,,,0.00,WUHU216HW,2013-03-30 08:15:00,
2013-03-30 04:20:00,46.3,39.5,30.20,NW,315,0.0,0.0,77,0.00,,,0.00,WUHU216HW,2013-03-30 08:20:00,
2013-03-30 04:25:00,46.3,39.5,30.19,NW,315,0.0,0.0,77,0.00,,,0.00,WUHU216HW,2013-03-30 08:25:00,
2013-03-30 04:30:00,46.4,40.0,30.19,NW,315,0.0,0.0,78,0.00,,,0.00,WUHU216HW,2013-03-30 08:30:00,
2013-03-30 04:35:00,46.3,39.8,30.19,NW,315,0.0,0.0,78,0.00,,,0.00,WUHU216HW,2013-03-30 08:35:00,
2013-03-30 04:40:00,46.1,39.3,30.19,NW,315,0.0,0.0,77,0.00,,,0.00,WUHU216HW,2013-03-30 08:40:00,
2013-03-30 04:45:00,45.9,39.4,30.19,NW,315,0.0,0.0,78,0.00,,,0.00,WUHU216HW,2013-03-30 08:45:00,
2013-03-30 04:50:00,45.9,39.4,30.19,NW,315,0.0,0.0,78,0.00,,,0.00,WUHU216HW,2013-03-30 08:50:00,
2013-03-30 04:55:00,45.7,39.2,30.19,NW,315,0.0,0.0,78,0.00,,,0.00,WUHU216HW,2013-03-30 08:55:00,
2013-03-30 05:00:00,45.7,39.2,30.19,NW,315,0.0,0.0,78,0.00,,,0.00,WUHU216HW,2013-03-30 09:00:00,
2013-03-30 05:05:00,45.7,39.2,30.19,NW,315,0.0,0.0,78,0.00,,,0.00,WUHU216HW,2013-03-30 09:05:00,
2013-03-30 05:10:00,45.7,39.2,30.19,NW,315,0.0,0.0,78,0.00,,,0.00,WUHU216HW,2013-03-30 09:10:00,
2013-03-30 05:15:00,45.7,39.0,30.19,NW,315,0.0,0.0,77,0.00,,,0.00,WUHU216HW,2013-03-30 09:15:00,
2013-03-30 05:20:00,45.7,39.0,30.19,NW,315,0.0,0.0,77,0.00,,,0.00,WUHU216HW,2013-03-30 09:20:00,
2013-03-30 05:25:00,45.5,38.8,30.19,NW,315,0.0,0.0,77,0.00,,,0.00,WUHU216HW,2013-03-30 09:25:00,
2013-03-30 05:30:00,45.5,38.8,30.19,NW,315,0.0,0.0,77,0.00,,,0.00,WUHU216HW,2013-03-30 09:30:00,
2013-03-30 05:34:00,45.4,38.6,30.19,NW,315,0.0,0.0,77,0.00,,,0.00,WUHU216HW,2013-03-30 09:34:00,
2013-03-30 05:39:00,45.2,38.4,30.19,NW,315,0.0,0.0,77,0.00,,,0.00,WUHU216HW,2013-03-30 09:39:00,
2013-03-30 05:44:00,45.0,38.3,30.19,NW,315,0.0,0.0,77,0.00,,,0.00,WUHU216HW,2013-03-30 09:44:00,
2013-03-30 05:49:00,44.8,38.3,30.19,NW,315,0.0,0.0,78,0.00,,,0.00,WUHU216HW,2013-03-30 09:49:00,
2013-03-30 05:54:00,44.8,38.3,30.19,NW,315,0.0,0.0,78,0.00,,,0.00,WUHU216HW,2013-03-30 09:54:00,
2013-03-30 05:59:00,44.6,38.2,30.19,NW,315,0.0,0.0,78,0.00,,,0.00,WUHU216HW,2013-03-30 09:59:00,
2013-03-30 06:04:00,44.8,38.3,30.19,NW,315,0.0,0.0,78,0.00,,,0.00,WUHU216HW,2013-03-30 10:04:00,
2013-03-30 06:09:00,44.8,38.3,30.19,NW,315,0.0,0.0,78,0.00,,,0.00,WUHU216HW,2013-03-30 10:09:00,
2013-03-30 06:14:00,45.0,38.5,30.19,NW,315,0.0,0.0,78,0.00,,,0.00,WUHU216HW,2013-03-30 10:14:00,
2013-03-30 06:19:00,45.0,38.5,30.19,NW,315,0.0,0.0,78,0.00,,,0.00,WUHU216HW,2013-03-30 10:19:00,
2013-03-30 06:24:00,44.8,38.3,30.19,NW,315,0.0,0.0,78,0.00,,,0.00,WUHU216HW,2013-03-30 10:24:00,
2013-03-30 06:29:00,44.8,38.3,30.19,NW,315,0.0,0.0,78,0.00,,,0.00,WUHU216HW,2013-03-30 10:29:00,
2013-03-30 06:34:00,45.0,38.5,30.19,NW,315,0.0,0.0,78,0.00,,,0.00,WUHU216HW,2013-03-30 10:34:00,
2013-03-30 06:39:00,45.0,38.5,30.19,NW,315,0.0,0.0,78,0.00,,,0.00,WUHU216HW,2013-03-30 10:39:00,
2013-03-30 06:44:00,45.0,38.5,30.19,NW,315,0.0,0.0,78,0.00,,,0.00,WUHU216HW,2013-03-30 10:44:00,
2013-03-30 06:49:00,45.0,38.5,30.19,NW,315,0.0,0.0,78,0.00,,,0.00,WUHU216HW,2013-03-30 10:49:00,
2013-03-30 06:54:00,45.0,38.5,30.19,NW,315,0.0,0.0,78,0.00,,,0.00,WUHU216HW,2013-03-30 10:54:00,
2013-03-30 06:59:00,44.8,38.3,30.19,NW,315,0.0,0.0,78,0.00,,,0.00,WUHU216HW,2013-03-30 10:59:00,
2013-03-30 07:04:00,44.8,38.3,30.20,NW,315,0.0,0.0,78,0.00,,,0.00,WUHU216HW,2013-03-30 11:04:00,
2013-03-30 07:09:00,44.8,38.3,30.20,NW,315,0.0,0.0,78,0.00,,,0.00,WUHU216HW,2013-03-30 11:09:00,
2013-03-30 07:14:00,44.6,38.2,30.20,NW,315,0.0,0.0,78,0.00,,,0.00,WUHU216HW,2013-03-30 11:14:00,
2013-03-30 07:19:00,44.5,38.3,30.20,North,0,0.0,0.0,79,0.00,,,0.00,WUHU216HW,2013-03-30 11:19:00,
2013-03-30 07:24:00,44.3,38.2,30.20,North,0,0.0,0.0,79,0.00,,,0.00,WUHU216HW,2013-03-30 11:24:00,
2013-03-30 07:29:00,44.3,38.2,30.20,North,0,0.0,0.0,79,0.00,,,0.00,WUHU216HW,2013-03-30 11:29:00,
2013-03-30 07:34:00,44.1,38.0,30.20,North,0,0.0,0.0,79,0.00,,,0.00,WUHU216HW,2013-03-30 11:34:00,
2013-03-30 07:39:00,44.1,38.0,30.20,North,0,0.0,0.0,79,0.00,,,0.00,WUHU216HW,2013-03-30 11:39:00,
2013-03-30 07:44:00,43.9,37.8,30.20,North,0,0.0,0.0,79,0.00,,,0.00,WUHU216HW,2013-03-30 11:44:00,
2013-03-30 07:49:00,43.9,37.8,30.21,North,0,0.0,0.0,79,0.00,,,0.00,WUHU216HW,2013-03-30 11:49:00,
2013-03-30 07:54:00,44.3,38.2,30.21,North,0,0.0,0.0,79,0.00,,,0.00,WUHU216HW,2013-03-30 11:54:00,
2013-03-30 07:59:00,44.6,38.5,30.21,North,0,0.0,0.0,79,0.00,,,0.00,WUHU216HW,2013-03-30 11:59:00,
2013-03-30 08:04:00,45.0,39.2,30.21,North,0,0.0,0.0,80,0.00,,,0.00,WUHU216HW,2013-03-30 12:04:00,
2013-03-30 08:09:00,45.2,39.4,30.21,North,0,0.0,0.0,80,0.00,,,0.00,WUHU216HW,2013-03-30 12:09:00,
2013-03-30 08:14:00,45.7,40.0,30.21,North,0,0.0,0.0,80,0.00,,,0.00,WUHU216HW,2013-03-30 12:14:00,
2013-03-30 08:19:00,46.3,40.5,30.21,North,0,0.0,0.0,80,0.00,,,0.00,WUHU216HW,2013-03-30 12:19:00,
2013-03-30 08:24:00,46.8,41.3,30.21,North,0,0.0,0.0,81,0.00,,,0.00,WUHU216HW,2013-03-30 12:24:00,
2013-03-30 08:29:00,47.3,41.8,30.22,North,0,0.0,0.0,81,0.00,,,0.00,WUHU216HW,2013-03-30 12:29:00,
2013-03-30 08:34:00,47.9,42.3,30.22,North,0,0.0,0.0,81,0.00,,,0.00,WUHU216HW,2013-03-30 12:34:00,
2013-03-30 08:39:00,48.8,43.8,30.22,NE,45,0.2,0.2,83,0.00,,,0.00,WUHU216HW,2013-03-30 12:39:00,
2013-03-30 08:44:00,49.5,44.5,30.22,NE,45,0.0,0.4,83,0.00,,,0.00,WUHU216HW,2013-03-30 12:44:00,
2013-03-30 08:49:00,50.2,45.2,30.22,ESE,113,0.0,0.4,83,0.00,,,0.00,WUHU216HW,2013-03-30 12:49:00,
2013-03-30 08:54:00,50.8,45.7,30.22,ESE,113,0.2,0.4,83,0.00,,,0.00,WUHU216HW,2013-03-30 12:54:00,
2013-03-30 08:59:00,51.3,46.3,30.22,SE,135,0.7,1.8,83,0.00,,,0.00,WUHU216HW,2013-03-30 12:59:00,
2013-03-30 09:04:00,52.0,46.7,30.22,SW,225,1.3,1.8,82,0.00,,,0.00,WUHU216HW,2013-03-30 13:04:00,
2013-03-30 09:09:00,52.9,47.3,30.22,WNW,293,1.1,1.3,81,0.00,,,0.00,WUHU216HW,2013-03-30 13:09:00,
2013-03-30 09:14:00,53.6,47.0,30.22,NNW,338,0.2,1.3,78,0.00,,,0.00,WUHU216HW,2013-03-30 13:14:00,
2013-03-30 09:19:00,54.5,47.8,30.22,SE,135,0.4,2.2,78,0.00,,,0.00,WUHU216HW,2013-03-30 13:19:00,
2013-03-30 09:24:00,55.4,48.3,30.22,SW,225,0.4,2.2,77,0.00,,,0.00,WUHU216HW,2013-03-30 13:24:00,
2013-03-30 09:29:00,56.3,47.8,30.22,WNW,293,2.0,5.8,73,0.00,,,0.00,WUHU216HW,2013-03-30 13:29:00,
2013-03-30 09:34:00,57.6,48.2,30.22,WSW,248,3.4,5.8,71,0.00,,,0.00,WUHU216HW,2013-03-30 13:34:00,
2013-03-30 09:39:00,58.9,49.1,30.22,WSW,248,2.5,4.9,70,0.00,,,0.00,WUHU216HW,2013-03-30 13:39:00,
2013-03-30 09:44:00,60.1,50.0,30.22,SE,135,1.6,3.1,69,0.00,,,0.00,WUHU216HW,2013-03-30 13:44:00,
2013-03-30 09:49:00,61.9,50.9,30.22,WSW,248,2.5,3.1,67,0.00,,,0.00,WUHU216HW,2013-03-30 13:49:00,
2013-03-30 09:54:00,63.2,50.3,30.22,SE,135,1.8,3.8,63,0.00,,,0.00,WUHU216HW,2013-03-30 13:54:00,
2013-03-30 09:59:00,64.8,52.3,30.22,WSW,248,0.4,4.7,64,0.00,,,0.00,WUHU216HW,2013-03-30 13:59:00,
2013-03-30 10:04:00,66.1,49.9,30.22,SE,135,6.3,6.3,56,0.00,,,0.00,WUHU216HW,2013-03-30 14:04:00,
2013-03-30 10:09:00,66.6,50.4,30.22,NE,45,2.9,7.2,56,0.00,,,0.00,WUHU216HW,2013-03-30 14:09:00,
2013-03-30 10:14:00,67.1,49.0,30.21,SSE,158,1.1,7.2,52,0.00,,,0.00,WUHU216HW,2013-03-30 14:14:00,
2013-03-30 10:19:00,68.2,51.8,30.22,WNW,293,3.4,3.8,56,0.00,,,0.00,WUHU216HW,2013-03-30 14:19:00,
2013-03-30 10:24:00,69.5,51.1,30.21,SE,135,4.0,4.0,52,0.00,,,0.00,WUHU216HW,2013-03-30 14:24:00,
2013-03-30 10:29:00,70.2,50.8,30.21,SE,135,5.4,6.9,50,0.00,,,0.00,WUHU216HW,2013-03-30 14:29:00,
2013-03-30 10:34:00,70.7,51.8,30.21,WNW,293,1.1,6.9,51,0.00,,,0.00,WUHU216HW,2013-03-30 14:34:00,
2013-03-30 10:39:00,71.3,50.0,30.21,SE,135,4.0,4.7,47,0.00,,,0.00,WUHU216HW,2013-03-30 14:39:00,
2013-03-30 10:44:00,71.6,51.4,30.21,SSW,203,1.8,5.4,49,0.00,,,0.00,WUHU216HW,2013-03-30 14:44:00,
2013-03-30 10:49:00,72.0,50.0,30.21,SE,135,1.8,5.4,46,0.00,,,0.00,WUHU216HW,2013-03-30 14:49:00,
2013-03-30 10:54:00,72.5,48.1,30.21,SE,135,2.9,5.6,42,0.00,,,0.00,WUHU216HW,2013-03-30 14:54:00,
2013-03-30 10:59:00,72.5,47.5,30.21,NNW,338,0.4,6.9,41,0.00,,,0.00,WUHU216HW,2013-03-30 14:59:00,
2013-03-30 11:04:00,73.1,48.6,30.20,WSW,248,3.6,7.6,42,0.00,,,0.00,WUHU216HW,2013-03-30 15:04:00,
2013-03-30 11:09:00,73.4,48.9,30.20,NNW,338,0.9,7.6,42,0.00,,,0.00,WUHU216HW,2013-03-30 15:09:00,
2013-03-30 11:14:00,73.4,47.7,30.20,West,270,3.4,6.7,40,0.00,,,0.00,WUHU216HW,2013-03-30 15:14:00,
2013-03-30 11:19:00,73.8,48.6,30.20,South,180,2.9,6.3,41,0.00,,,0.00,WUHU216HW,2013-03-30 15:19:00,
2013-03-30 11:24:00,73.8,48.1,30.20,South,180,2.7,9.2,40,0.00,,,0.00,WUHU216HW,2013-03-30 15:24:00,
2013-03-30 11:29:00,74.0,48.2,30.20,NE,45,5.4,9.2,40,0.00,,,0.00,WUHU216HW,2013-03-30 15:29:00,
2013-03-30 11:34:00,74.3,47.0,30.20,WNW,293,1.1,7.2,38,0.00,,,0.00,WUHU216HW,2013-03-30 15:34:00,
2013-03-30 11:39:00,74.9,48.2,30.20,SE,135,2.0,5.6,39,0.00,,,0.00,WUHU216HW,2013-03-30 15:39:00,
2013-03-30 11:44:00,75.4,50.1,30.20,NNW,338,1.1,5.6,41,0.00,,,0.00,WUHU216HW,2013-03-30 15:44:00,
2013-03-30 11:49:00,75.8,49.1,30.20,West,270,4.0,5.4,39,0.00,,,0.00,WUHU216HW,2013-03-30 15:49:00,
2013-03-30 11:54:00,76.3,48.1,30.20,WNW,293,5.6,5.6,37,0.00,,,0.00,WUHU216HW,2013-03-30 15:54:00,
2013-03-30 11:59:00,76.7,49.2,30.19,West,270,2.5,6.3,38,0.00,,,0.00,WUHU216HW,2013-03-30 15:59:00,
2013-03-30 12:04:00,76.9,49.2,30.20,WSW,248,2.5,6.3,38,0.00,,,0.00,WUHU216HW,2013-03-30 16:04:00,
2013-03-30 12:09:00,77.0,48.7,30.19,WNW,293,2.5,5.6,37,0.00,,,0.00,WUHU216HW,2013-03-30 16:09:00,
2013-03-30 12:14:00,77.0,47.9,30.20,WNW,293,3.4,6.5,36,0.00,,,0.00,WUHU216HW,2013-03-30 16:14:00,
2013-03-30 12:19:00,77.2,50.3,30.20,ESE,113,6.9,6.9,39,0.00,,,0.00,WUHU216HW,2013-03-30 16:19:00,
2013-03-30 12:24:00,77.0,47.2,30.20,NW,315,0.9,6.9,35,0.00,,,0.00,WUHU216HW,2013-03-30 16:24:00,
2013-03-30 12:29:00,76.9,50.1,30.19,ESE,113,1.3,6.9,39,0.00,,,0.00,WUHU216HW,2013-03-30 16:29:00,
2013-03-30 12:34:00,76.7,49.2,30.19,WSW,248,0.9,4.5,38,0.00,,,0.00,WUHU216HW,2013-03-30 16:34:00,
2013-03-30 12:39:00,77.0,49.4,30.19,SSW,203,3.4,5.1,38,0.00,,,0.00,WUHU216HW,2013-03-30 16:39:00,
2013-03-30 12:44:00,76.7,49.2,30.19,WNW,293,1.3,6.5,38,0.00,,,0.00,WUHU216HW,2013-03-30 16:44:00,
2013-03-30 12:49:00,77.4,48.3,30.18,WSW,248,2.9,6.5,36,0.00,,,0.00,WUHU216HW,2013-03-30 16:49:00,
2013-03-30 12:54:00,77.2,49.6,30.18,WNW,293,1.6,5.8,38,0.00,,,0.00,WUHU216HW,2013-03-30 16:54:00,
2013-03-30 12:59:00,77.8,45.5,30.18,SE,135,4.9,7.4,32,0.00,,,0.00,WUHU216HW,2013-03-30 16:59:00,
2013-03-30 13:04:00,77.9,47.2,30.18,SE,135,11.4,11.4,34,0.00,,,0.00,WUHU216HW,2013-03-30 17:04:00,
2013-03-30 13:09:00,77.8,47.0,30.17,SW,225,1.8,11.4,34,0.00,,,0.00,WUHU216HW,2013-03-30 17:09:00,
2013-03-30 13:14:00,77.9,47.2,30.17,West,270,2.7,11.4,34,0.00,,,0.00,WUHU216HW,2013-03-30 17:14:00,
2013-03-30 13:19:00,78.5,48.4,30.17,East,90,1.8,6.3,35,0.00,,,0.00,WUHU216HW,2013-03-30 17:19:00,
2013-03-30 13:24:00,78.7,47.8,30.17,SE,135,4.9,6.3,34,0.00,,,0.00,WUHU216HW,2013-03-30 17:24:00,
2013-03-30 13:29:00,78.7,47.0,30.17,WSW,248,2.5,7.8,33,0.00,,,0.00,WUHU216HW,2013-03-30 17:29:00,
2013-03-30 13:34:00,78.5,46.1,30.16,West,270,2.5,7.8,32,0.00,,,0.00,WUHU216HW,2013-03-30 17:34:00,
2013-03-30 13:39:00,78.5,46.8,30.16,SW,225,3.8,7.8,33,0.00,,,0.00,WUHU216HW,2013-03-30 17:39:00,
2013-03-30 13:44:00,78.1,45.0,30.16,ESE,113,2.5,7.8,31,0.00,,,0.00,WUHU216HW,2013-03-30 17:44:00,
2013-03-30 13:49:00,78.5,47.6,30.16,NNW,338,0.4,9.2,34,0.00,,,0.00,WUHU216HW,2013-03-30 17:49:00,
2013-03-30 13:54:00,78.8,46.4,30.16,SE,135,3.4,9.2,32,0.00,,,0.00,WUHU216HW,2013-03-30 17:54:00,
2013-03-30 13:59:00,78.7,46.3,30.15,ESE,113,1.1,8.1,32,0.00,,,0.00,WUHU216HW,2013-03-30 17:59:00,
2013-03-30 14:04:00,78.8,45.6,30.15,SSE,158,5.8,8.1,31,0.00,,,0.00,WUHU216HW,2013-03-30 18:04:00,
2013-03-30 14:09:00,79.0,45.0,30.15,NW,315,4.0,6.7,30,0.00,,,0.00,WUHU216HW,2013-03-30 18:09:00,
2013-03-30 14:14:00,79.2,47.4,30.15,West,270,1.6,6.7,33,0.00,,,0.00,WUHU216HW,2013-03-30 18:14:00,
2013-03-30 14:19:00,79.6,46.3,30.15,NW,315,3.1,5.8,31,0.00,,,0.00,WUHU216HW,2013-03-30 18:19:00,
2013-03-30 14:24:00,79.6,47.8,30.15,SSW,203,1.1,4.7,33,0.00,,,0.00,WUHU216HW,2013-03-30 18:24:00,
2013-03-30 14:29:00,79.7,47.2,30.15,SSE,158,2.0,4.7,32,0.00,,,0.00,WUHU216HW,2013-03-30 18:29:00,
2013-03-30 14:34:00,79.6,45.5,30.14,NNE,23,2.2,4.5,30,0.00,,,0.00,WUHU216HW,2013-03-30 18:34:00,
2013-03-30 14:39:00,79.7,47.2,30.14,ESE,113,1.8,7.6,32,0.00,,,0.00,WUHU216HW,2013-03-30 18:39:00,
2013-03-30 14:44:00,79.9,45.8,30.14,NNW,338,1.1,7.6,30,0.00,,,0.00,WUHU216HW,2013-03-30 18:44:00,
2013-03-30 14:49:00,79.9,45.8,30.14,South,180,2.9,7.4,30,0.00,,,0.00,WUHU216HW,2013-03-30 18:49:00,
2013-03-30 14:54:00,79.9,44.7,30.13,SE,135,9.2,9.2,29,0.00,,,0.00,WUHU216HW,2013-03-30 18:54:00,
2013-03-30 14:59:00,79.6,46.3,30.13,NNW,338,1.8,9.2,31,0.00,,,0.00,WUHU216HW,2013-03-30 18:59:00,
2013-03-30 15:04:00,79.6,46.3,30.13,SE,135,1.8,9.2,31,0.00,,,0.00,WUHU216HW,2013-03-30 19:04:00,
2013-03-30 15:09:00,79.7,47.2,30.12,WSW,248,1.6,5.4,32,0.00,,,0.00,WUHU216HW,2013-03-30 19:09:00,
2013-03-30 15:14:00,80.3,46.9,30.12,WSW,248,2.5,5.4,31,0.00,,,0.00,WUHU216HW,2013-03-30 19:14:00,
2013-03-30 15:19:00,80.1,44.9,30.12,South,180,5.1,6.9,29,0.00,,,0.00,WUHU216HW,2013-03-30 19:19:00,
2013-03-30 15:24:00,79.9,45.8,30.12,SE,135,4.0,8.5,30,0.00,,,0.00,WUHU216HW,2013-03-30 19:24:00,
2013-03-30 15:29:00,79.7,45.6,30.12,SW,225,1.8,8.5,30,0.00,,,0.00,WUHU216HW,2013-03-30 19:29:00,
2013-03-30 15:34:00,79.9,47.3,30.11,SE,135,1.3,6.0,32,0.00,,,0.00,WUHU216HW,2013-03-30 19:34:00,
2013-03-30 15:39:00,80.5,47.1,30.11,SSE,158,4.7,4.7,31,0.00,,,0.00,WUHU216HW,2013-03-30 19:39:00,
2013-03-30 15:44:00,80.6,47.3,30.11,SE,135,2.5,5.8,31,0.00,,,0.00,WUHU216HW,2013-03-30 19:44:00,
2013-03-30 15:49:00,80.6,47.3,30.10,SE,135,1.8,6.9,31,0.00,,,0.00,WUHU216HW,2013-03-30 19:49:00,
2013-03-30 15:54:00,80.3,44.0,30.10,SE,135,1.8,6.9,28,0.00,,,0.00,WUHU216HW,2013-03-30 19:54:00,
2013-03-30 15:59:00,80.3,46.1,30.10,North,0,0.9,4.0,30,0.00,,,0.00,WUHU216HW,2013-03-30 19:59:00,
2013-03-30 16:04:00,79.9,45.8,30.10,WSW,248,4.0,6.3,30,0.00,,,0.00,WUHU216HW,2013-03-30 20:04:00,
2013-03-30 16:09:00,80.3,46.9,30.10,South,180,5.6,6.3,31,0.00,,,0.00,WUHU216HW,2013-03-30 20:09:00,
2013-03-30 16:14:00,80.3,46.9,30.10,WSW,248,3.6,6.3,31,0.00,,,0.00,WUHU216HW,2013-03-30 20:14:00,
2013-03-30 16:19:00,80.5,47.1,30.10,WSW,248,0.4,4.0,31,0.00,,,0.00,WUHU216HW,2013-03-30 20:19:00,
2013-03-30 16:24:00,80.3,46.9,30.10,WSW,248,1.8,5.6,31,0.00,,,0.00,WUHU216HW,2013-03-30 20:24:00,
2013-03-30 16:29:00,80.3,46.1,30.10,SSW,203,1.6,5.6,30,0.00,,,0.00,WUHU216HW,2013-03-30 20:29:00,
2013-03-30 16:34:00,80.6,48.0,30.10,SW,225,0.4,5.4,32,0.00,,,0.00,WUHU216HW,2013-03-30 20:34:00,
2013-03-30 16:39:00,80.8,47.3,30.09,WNW,293,1.8,4.7,31,0.00,,,0.00,WUHU216HW,2013-03-30 20:39:00,
2013-03-30 16:44:00,80.6,45.4,30.09,ENE,68,2.0,6.7,29,0.00,,,0.00,WUHU216HW,2013-03-30 20:44:00,
2013-03-30 16:49:00,80.3,46.1,30.09,WNW,293,4.3,6.7,30,0.00,,,0.00,WUHU216HW,2013-03-30 20:49:00,
2013-03-30 16:54:00,80.3,46.9,30.09,West,270,2.0,6.0,31,0.00,,,0.00,WUHU216HW,2013-03-30 20:54:00,
2013-03-30 16:59:00,79.7,46.5,30.09,South,180,1.3,9.2,31,0.00,,,0.00,WUHU216HW,2013-03-30 20:59:00,
2013-03-30 17:04:00,79.9,47.3,30.09,ESE,113,6.5,9.2,32,0.00,,,0.00,WUHU216HW,2013-03-30 21:04:00,
2013-03-30 17:09:00,79.7,47.2,30.08,West,270,1.3,6.5,32,0.00,,,0.00,WUHU216HW,2013-03-30 21:09:00,
2013-03-30 17:14:00,79.4,46.9,30.08,SE,135,4.7,6.9,32,0.00,,,0.00,WUHU216HW,2013-03-30 21:14:00,
2013-03-30 17:19:00,79.4,46.9,30.09,ESE,113,2.0,6.9,32,0.00,,,0.00,WUHU216HW,2013-03-30 21:19:00,
2013-03-30 17:24:00,79.0,51.9,30.09,SE,135,1.1,5.4,39,0.00,,,0.00,WUHU216HW,2013-03-30 21:24:00,
2013-03-30 17:29:00,77.4,52.5,30.08,SE,135,6.9,6.9,42,0.00,,,0.00,WUHU216HW,2013-03-30 21:29:00,
2013-03-30 17:34:00,77.2,52.3,30.08,ESE,113,5.4,6.9,42,0.00,,,0.00,WUHU216HW,2013-03-30 21:34:00,
2013-03-30 17:39:00,76.7,51.8,30.09,ESE,113,4.7,6.9,42,0.00,,,0.00,WUHU216HW,2013-03-30 21:39:00,
2013-03-30 17:44:00,76.3,51.5,30.08,ENE,68,3.1,8.3,42,0.00,,,0.00,WUHU216HW,2013-03-30 21:44:00,
2013-03-30 17:49:00,75.8,51.0,30.09,SE,135,4.3,8.3,42,0.00,,,0.00,WUHU216HW,2013-03-30 21:49:00,
2013-03-30 17:54:00,75.2,50.6,30.09,SE,135,5.4,9.6,42,0.00,,,0.00,WUHU216HW,2013-03-30 21:54:00,
2013-03-30 17:59:00,74.7,50.7,30.08,ESE,113,10.5,10.5,43,0.00,,,0.00,WUHU216HW,2013-03-30 21:59:00,
2013-03-30 18:04:00,74.3,51.0,30.09,SE,135,4.0,10.5,44,0.00,,,0.00,WUHU216HW,2013-03-30 22:04:00,
2013-03-30 18:09:00,74.2,51.4,30.08,ESE,113,6.7,10.5,45,0.00,,,0.00,WUHU216HW,2013-03-30 22:09:00,
2013-03-30 18:14:00,73.8,51.6,30.08,East,90,2.5,7.4,46,0.00,,,0.00,WUHU216HW,2013-03-30 22:14:00,
2013-03-30 18:19:00,73.4,51.8,30.08,SE,135,7.6,8.1,47,0.00,,,0.00,WUHU216HW,2013-03-30 22:19:00,
2013-03-30 18:24:00,73.1,52.1,30.09,SE,135,4.7,8.1,48,0.00,,,0.00,WUHU216HW,2013-03-30 22:24:00,
2013-03-30 18:29:00,72.7,51.9,30.09,SE,135,2.2,7.6,48,0.00,,,0.00,WUHU216HW,2013-03-30 22:29:00,
2013-03-30 18:34:00,72.4,52.7,30.09,SE,135,4.3,6.3,50,0.00,,,0.00,WUHU216HW,2013-03-30 22:34:00,
2013-03-30 18:39:00,72.0,52.4,30.09,ESE,113,4.0,4.9,50,0.00,,,0.00,WUHU216HW,2013-03-30 22:39:00,
2013-03-30 18:44:00,71.6,53.0,30.09,SE,135,6.7,7.6,52,0.00,,,0.00,WUHU216HW,2013-03-30 22:44:00,
2013-03-30 18:49:00,71.1,53.0,30.09,SE,135,5.4,8.9,53,0.00,,,0.00,WUHU216HW,2013-03-30 22:49:00,
2013-03-30 18:54:00,70.6,53.1,30.09,SE,135,4.9,8.9,54,0.00,,,0.00,WUHU216HW,2013-03-30 22:54:00,
2013-03-30 18:59:00,70.2,53.3,30.09,ESE,113,5.4,8.3,55,0.00,,,0.00,WUHU216HW,2013-03-30 22:59:00,
2013-03-30 19:04:00,69.8,52.9,30.09,SE,135,3.1,7.6,55,0.00,,,0.00,WUHU216HW,2013-03-30 23:04:00,
2013-03-30 19:09:00,69.3,52.4,30.09,SE,135,1.6,8.5,55,0.00,,,0.00,WUHU216HW,2013-03-30 23:09:00,
2013-03-30 19:14:00,69.1,52.8,30.09,SE,135,3.6,8.5,56,0.00,,,0.00,WUHU216HW,2013-03-30 23:14:00,
2013-03-30 19:19:00,68.6,52.2,30.09,SE,135,3.4,5.1,56,0.00,,,0.00,WUHU216HW,2013-03-30 23:19:00,
2013-03-30 19:24:00,68.4,53.0,30.09,SE,135,4.7,6.9,58,0.00,,,0.00,WUHU216HW,2013-03-30 23:24:00,
2013-03-30 19:29:00,68.0,52.7,30.09,SE,135,4.0,6.9,58,0.00,,,0.00,WUHU216HW,2013-03-30 23:29:00,
2013-03-30 19:34:00,67.7,52.4,30.10,SE,135,3.8,6.9,58,0.00,,,0.00,WUHU216HW,2013-03-30 23:34:00,
2013-03-30 19:39:00,67.5,52.7,30.10,SE,135,1.6,5.4,59,0.00,,,0.00,WUHU216HW,2013-03-30 23:39:00,
2013-03-30 19:44:00,67.1,52.4,30.10,ESE,113,0.9,5.8,59,0.00,,,0.00,WUHU216HW,2013-03-30 23:44:00,
2013-03-30 19:49:00,66.8,52.0,30.10,ESE,113,1.8,5.8,59,0.00,,,0.00,WUHU216HW,2013-03-30 23:49:00,
2013-03-30 19:54:00,66.6,51.8,30.10,SE,135,0.7,5.8,59,0.00,,,0.00,WUHU216HW,2013-03-30 23:54:00,
2013-03-30 19:59:00,66.4,52.2,30.10,SE,135,5.1,5.1,60,0.00,,,0.00,WUHU216HW,2013-03-30 23:59:00,
2013-03-30 20:04:00,66.1,51.4,30.10,ESE,113,1.8,5.1,59,0.00,,,0.00,WUHU216HW,2013-03-31 00:04:00,
2013-03-30 20:09:00,65.9,51.7,30.10,SW,225,2.5,3.8,60,0.00,,,0.00,WUHU216HW,2013-03-31 00:09:00,
2013-03-30 20:14:00,65.5,51.8,30.10,SE,135,4.5,5.4,61,0.00,,,0.00,WUHU216HW,2013-03-31 00:14:00,
2013-03-30 20:19:00,65.3,51.6,30.10,SE,135,2.0,5.4,61,0.00,,,0.00,WUHU216HW,2013-03-31 00:19:00,
2013-03-30 20:24:00,65.2,51.8,30.10,SE,135,4.7,6.3,62,0.00,,,0.00,WUHU216HW,2013-03-31 00:24:00,
2013-03-30 20:29:00,65.0,51.6,30.10,SE,135,4.0,6.3,62,0.00,,,0.00,WUHU216HW,2013-03-31 00:29:00,
2013-03-30 20:34:00,65.0,51.6,30.10,ESE,113,1.1,4.9,62,0.00,,,0.00,WUHU216HW,2013-03-31 00:34:00,
2013-03-30 20:39:00,64.8,51.5,30.10,SE,135,0.7,4.0,62,0.00,,,0.00,WUHU216HW,2013-03-31 00:39:00,
2013-03-30 20:44:00,64.6,51.7,30.10,ESE,113,2.0,3.8,63,0.00,,,0.00,WUHU216HW,2013-03-31 00:44:00,
2013-03-30 20:49:00,64.4,51.5,30.10,SE,135,2.0,3.4,63,0.00,,,0.00,WUHU216HW,2013-03-31 00:49:00,
2013-03-30 20:54:00,64.3,51.4,30.11,SE,135,2.5,3.4,63,0.00,,,0.00,WUHU216HW,2013-03-31 00:54:00,
2013-03-30 20:59:00,64.1,51.2,30.10,SE,135,1.3,3.4,63,0.00,,,0.00,WUHU216HW,2013-03-31 00:59:00,
2013-03-30 21:04:00,63.9,51.5,30.11,SE,135,0.9,3.4,64,0.00,,,0.00,WUHU216HW,2013-03-31 01:04:00,
2013-03-30 21:09:00,63.7,51.7,30.11,ESE,113,1.6,3.4,65,0.00,,,0.00,WUHU216HW,2013-03-31 01:09:00,
2013-03-30 21:14:00,63.7,51.3,30.11,ESE,113,0.9,2.9,64,0.00,,,0.00,WUHU216HW,2013-03-31 01:14:00,
2013-03-30 21:19:00,63.5,51.6,30.11,SE,135,2.2,2.5,65,0.00,,,0.00,WUHU216HW,2013-03-31 01:19:00,
2013-03-30 21:24:00,63.4,51.4,30.11,SE,135,0.4,2.2,65,0.00,,,0.00,WUHU216HW,2013-03-31 01:24:00,
2013-03-30 21:29:00,63.4,51.4,30.11,SE,135,0.9,2.2,65,0.00,,,0.00,WUHU216HW,2013-03-31 01:29:00,
2013-03-30 21:34:00,63.0,51.0,30.11,SE,135,1.1,1.6,65,0.00,,,0.00,WUHU216HW,2013-03-31 01:34:00,
2013-03-30 21:39:00,63.0,51.0,30.11,SE,135,0.4,1.1,65,0.00,,,0.00,WUHU216HW,2013-03-31 01:39:00,
2013-03-30 21:44:00,62.6,51.1,30.11,SE,135,0.2,1.1,66,0.00,,,0.00,WUHU216HW,2013-03-31 01:44:00,
2013-03-30 21:49:00,62.5,51.0,30.11,SE,135,0.9,0.9,66,0.00,,,0.00,WUHU216HW,2013-03-31 01:49:00,
2013-03-30 21:54:00,62.3,50.8,30.11,SSW,203,0.0,1.8,66,0.00,,,0.00,WUHU216HW,2013-03-31 01:54:00,
2013-03-30 21:59:00,62.1,50.6,30.11,SE,135,0.0,1.8,66,0.00,,,0.00,WUHU216HW,2013-03-31 01:59:00,
2013-03-30 22:04:00,62.1,51.0,30.12,ESE,113,0.0,1.3,67,0.00,,,0.00,WUHU216HW,2013-03-31 02:04:00,
2013-03-30 22:09:00,61.9,50.9,30.11,SE,135,0.0,0.7,67,0.00,,,0.00,WUHU216HW,2013-03-31 02:09:00,
2013-03-30 22:14:00,61.6,51.4,30.12,SE,135,0.0,0.4,69,0.00,,,0.00,WUHU216HW,2013-03-31 02:14:00,
2013-03-30 22:19:00,61.4,50.8,30.12,SE,135,0.0,0.2,68,0.00,,,0.00,WUHU216HW,2013-03-31 02:19:00,
2013-03-30 22:24:00,61.0,50.5,30.12,SSE,158,0.0,0.0,68,0.00,,,0.00,WUHU216HW,2013-03-31 02:24:00,
2013-03-30 22:29:00,60.8,50.3,30.12,South,180,0.0,0.4,68,0.00,,,0.00,WUHU216HW,2013-03-31 02:29:00,
2013-03-30 22:34:00,60.5,50.0,30.12,SSW,203,0.0,0.9,68,0.00,,,0.00,WUHU216HW,2013-03-31 02:34:00,
2013-03-30 22:39:00,60.3,49.8,30.12,SSW,203,0.0,0.9,68,0.00,,,0.00,WUHU216HW,2013-03-31 02:39:00,
2013-03-30 22:44:00,60.1,50.0,30.12,SSW,203,0.0,0.0,69,0.00,,,0.00,WUHU216HW,2013-03-31 02:44:00,
2013-03-30 22:49:00,60.1,50.0,30.13,SSW,203,0.0,0.2,69,0.00,,,0.00,WUHU216HW,2013-03-31 02:49:00,
2013-03-30 22:54:00,60.1,50.0,30.12,South,180,0.0,0.2,69,0.00,,,0.00,WUHU216HW,2013-03-31 02:54:00,
2013-03-30 22:59:00,59.9,49.8,30.13,South,180,0.0,0.2,69,0.00,,,0.00,WUHU216HW,2013-03-31 02:59:00,
2013-03-30 23:04:00,59.6,49.4,30.13,South,180,0.0,0.0,69,0.00,,,0.00,WUHU216HW,2013-03-31 03:04:00,
2013-03-30 23:09:00,59.4,49.2,30.13,South,180,0.0,0.0,69,0.00,,,0.00,WUHU216HW,2013-03-31 03:09:00,
2013-03-30 23:14:00,59.4,49.2,30.13,South,180,0.0,0.2,69,0.00,,,0.00,WUHU216HW,2013-03-31 03:14:00,
2013-03-30 23:19:00,59.0,49.3,30.12,South,180,0.0,0.2,70,0.00,,,0.00,WUHU216HW,2013-03-31 03:19:00,
2013-03-30 23:24:00,58.9,49.1,30.12,South,180,0.0,0.0,70,0.00,,,0.00,WUHU216HW,2013-03-31 03:24:00,
2013-03-30 23:29:00,58.5,48.8,30.12,South,180,0.0,0.0,70,0.00,,,0.00,WUHU216HW,2013-03-31 03:29:00,
2013-03-30 23:34:00,58.3,48.6,30.12,SW,225,0.0,0.2,70,0.00,,,0.00,WUHU216HW,2013-03-31 03:34:00,
2013-03-30 23:39:00,58.1,48.4,30.12,South,180,0.0,0.7,70,0.00,,,0.00,WUHU216HW,2013-03-31 03:39:00,
2013-03-30 23:44:00,58.0,48.2,30.12,South,180,0.0,0.7,70,0.00,,,0.00,WUHU216HW,2013-03-31 03:44:00,
2013-03-30 23:49:00,58.0,48.2,30.11,SSE,158,0.4,0.4,70,0.00,,,0.00,WUHU216HW,2013-03-31 03:49:00,
2013-03-30 23:54:00,57.8,48.1,30.11,SSE,158,0.0,0.4,70,0.00,,,0.00,WUHU216HW,2013-03-31 03:54:00,
2013-03-30 23:59:00,57.8,48.1,30.11,SSE,158,0.0,0.0,70,0.00,,,0.00,WUHU216HW,2013-03-31 03:59:00,